KP58

Port Hope Airport

Port Hope, Michigan, USA
METAR KP58 182251Z AUTO 04009KT 23/21 A2998 RMK AO1 SLP145 T02280206
Observed Flight Rules
Aug-18 @ 22:51 UTC (55 minutes ago)
Wind
40° at 9 knots
Temperatures Readings
Current 23°C / 73°F
Dewpoint 21°C / 70°F
Humidity 89%
Altimeter 29.98" Hg
Pressure 1014.5 hPa
Elevation 179
METAR KP58 182251Z AUTO 04009KT 23/21 A2998 RMK AO1 SLP145 T02280206
Observed Flight Rules
Aug-18 @ 22:51 UTC
(55 minutes ago)
Wind
40° at 9 knots
Temperature Dewpoint
23°C / 73°F 21°C / 70°F
Humidity Altimeter Pressure
89% 29.98" Hg 1014.5 hPa